Time;durP1;ratioP1;P1;durP2;ratioP2;P2;SDS_P1;SDS_P2;PMS_P1;PMS_P2;Temp;Humidity;BMP_temperature;BMP_pressure;BME280_temperature;BME280_humidity;BME280_pressure;Samples;Min_cycle;Max_cycle;Signal;HPM_P1;HPM_P2
2022/03/13 00:00:11;;;;;;;1.23;0.93;;;18.40;56.80;;;;;;5089512;28;20019;-75
2022/03/13 00:02:37;;;;;;;1.45;1.00;;;18.40;56.80;;;;;;5088830;28;20057;-74
2022/03/13 00:05:05;;;;;;;1.52;0.82;;;18.40;56.80;;;;;;5086567;28;20391;-76
2022/03/13 00:07:34;;;;;;;2.15;1.33;;;18.30;56.90;;;;;;5087037;28;20026;-74
2022/03/13 00:09:59;;;;;;;1.45;0.90;;;18.30;56.90;;;;;;5087544;28;20128;-76
2022/03/13 00:12:30;;;;;;;3.30;1.23;;;18.30;57.00;;;;;;5087269;28;20099;-78
2022/03/13 00:14:56;;;;;;;2.13;1.05;;;18.30;56.90;;;;;;5087171;28;20127;-75
2022/03/13 00:17:29;;;;;;;3.38;1.15;;;18.30;56.90;;;;;;5086758;28;20024;-74
2022/03/13 00:20:02;;;;;;;2.15;1.20;;;18.20;56.90;;;;;;5086908;28;20012;-79
2022/03/13 00:22:33;;;;;;;1.42;1.10;;;18.20;56.90;;;;;;5087064;28;20035;-75
2022/03/13 00:25:00;;;;;;;1.45;0.98;;;18.20;57.10;;;;;;5087394;28;20039;-75
2022/03/13 00:27:29;;;;;;;1.60;1.08;;;18.20;57.10;;;;;;5086577;28;20442;-78
2022/03/13 00:29:55;;;;;;;1.95;1.20;;;18.10;57.20;;;;;;5089772;28;20027;-75
2022/03/13 00:32:22;;;;;;;1.13;0.95;;;18.10;57.30;;;;;;5088132;28;20141;-75
2022/03/13 00:34:47;;;;;;;1.90;1.17;;;18.10;57.20;;;;;;5086456;28;20034;-75
2022/03/13 00:37:13;;;;;;;1.83;1.30;;;18.10;57.20;;;;;;5086584;28;20020;-75
2022/03/13 00:39:40;;;;;;;1.00;0.82;;;18.00;57.10;;;;;;5087811;28;20442;-75
2022/03/13 00:42:07;;;;;;;2.17;1.42;;;18.00;57.10;;;;;;5086230;28;20065;-75
2022/03/13 00:44:33;;;;;;;1.60;0.98;;;18.00;57.10;;;;;;5085369;28;20035;-75
2022/03/13 00:46:58;;;;;;;1.45;1.10;;;18.00;57.10;;;;;;5085889;28;20044;-76
2022/03/13 00:49:24;;;;;;;1.80;1.05;;;18.00;57.10;;;;;;5086966;28;20050;-74
2022/03/13 00:51:50;;;;;;;1.67;0.98;;;18.00;57.10;;;;;;5086108;28;20028;-75
2022/03/13 00:54:15;;;;;;;1.23;0.80;;;17.90;57.10;;;;;;5087075;28;20071;-77
2022/03/13 00:56:41;;;;;;;2.20;1.30;;;17.90;57.10;;;;;;5087241;28;20052;-77
2022/03/13 00:59:07;;;;;;;1.88;1.00;;;17.90;57.20;;;;;;5089735;28;20031;-74
2022/03/13 01:01:32;;;;;;;1.42;1.02;;;17.90;57.10;;;;;;5089590;28;20032;-75
2022/03/13 01:03:58;;;;;;;3.88;1.20;;;17.90;57.20;;;;;;5085206;28;20035;-73
2022/03/13 01:06:24;;;;;;;1.85;1.10;;;17.90;57.40;;;;;;5086096;28;20522;-74
2022/03/13 01:08:51;;;;;;;1.65;1.00;;;17.80;57.30;;;;;;5085967;28;20065;-74
2022/03/13 01:11:20;;;;;;;3.22;1.08;;;17.80;57.20;;;;;;5085890;28;20028;-73
2022/03/13 01:13:47;;;;;;;1.65;1.23;;;17.80;57.20;;;;;;5086006;28;20098;-80
2022/03/13 01:16:22;;;;;;;1.80;1.00;;;17.80;57.30;;;;;;5086254;28;20487;-74
2022/03/13 01:18:56;;;;;;;1.40;0.90;;;17.80;57.40;;;;;;5086297;28;20024;-75
2022/03/13 01:21:22;;;;;;;1.83;1.33;;;17.70;57.40;;;;;;5085633;28;20028;-75
2022/03/13 01:23:59;;;;;;;1.75;1.02;;;17.70;57.40;;;;;;5086056;28;20518;-77
2022/03/13 01:26:25;;;;;;;1.58;0.98;;;17.70;57.50;;;;;;5084628;28;20063;-74
2022/03/13 01:28:59;;;;;;;1.73;1.10;;;17.70;57.50;;;;;;5086826;28;20059;-73
2022/03/13 01:31:27;;;;;;;1.77;1.10;;;17.70;57.50;;;;;;5090026;28;20441;-73
2022/03/13 01:33:53;;;;;;;1.95;1.08;;;17.70;57.50;;;;;;5085636;28;20082;-74
2022/03/13 01:36:19;;;;;;;1.55;1.20;;;17.70;57.50;;;;;;5085916;28;20377;-74
2022/03/13 01:38:45;;;;;;;1.65;1.17;;;17.60;57.50;;;;;;5085362;28;20031;-74
2022/03/13 01:41:10;;;;;;;2.13;1.30;;;17.60;57.50;;;;;;5086521;28;20069;-74
2022/03/13 01:43:36;;;;;;;1.63;1.00;;;17.60;57.50;;;;;;5085727;28;20047;-74
2022/03/13 01:46:04;;;;;;;1.50;0.90;;;17.60;57.60;;;;;;5083342;28;20043;-74
2022/03/13 01:48:37;;;;;;;1.48;0.95;;;17.60;57.60;;;;;;5083065;28;20051;-74
2022/03/13 01:51:03;;;;;;;1.80;0.95;;;17.60;57.60;;;;;;5085626;28;20036;-74
2022/03/13 01:53:28;;;;;;;1.70;1.10;;;17.50;57.60;;;;;;5085238;28;20032;-74
2022/03/13 01:55:57;;;;;;;1.70;1.30;;;17.60;57.70;;;;;;5084866;28;20028;-75
2022/03/13 01:58:23;;;;;;;1.90;1.20;;;17.50;57.70;;;;;;5088555;28;20028;-74
2022/03/13 02:00:49;;;;;;;1.60;1.10;;;17.50;57.70;;;;;;5089065;28;20519;-74
2022/03/13 02:03:16;;;;;;;1.67;1.05;;;17.50;57.70;;;;;;5085459;28;20020;-74
2022/03/13 02:05:48;;;;;;;1.73;0.90;;;17.50;57.80;;;;;;5084987;28;20028;-74
2022/03/13 02:08:21;;;;;;;1.33;0.90;;;17.40;57.70;;;;;;5084621;28;20508;-75
2022/03/13 02:10:46;;;;;;;1.77;1.13;;;17.40;57.70;;;;;;5084765;28;20028;-74
2022/03/13 02:13:18;;;;;;;1.10;0.95;;;17.50;57.80;;;;;;5086743;28;20028;-74
2022/03/13 02:15:45;;;;;;;1.88;1.13;;;17.40;57.80;;;;;;5084523;28;20026;-74
2022/03/13 02:18:11;;;;;;;1.85;1.20;;;17.40;57.80;;;;;;5085250;28;20028;-74
2022/03/13 02:20:44;;;;;;;2.10;1.08;;;17.40;57.80;;;;;;5084902;28;20411;-73
2022/03/13 02:23:21;;;;;;;1.48;1.10;;;17.30;57.80;;;;;;5085147;28;20637;-76
2022/03/13 02:25:49;;;;;;;1.50;1.00;;;17.40;57.90;;;;;;5084385;28;20403;-73
2022/03/13 02:28:18;;;;;;;1.83;0.95;;;17.40;57.90;;;;;;5085393;28;20044;-74
2022/03/13 02:30:43;;;;;;;1.42;0.90;;;17.30;57.80;;;;;;5086372;28;20024;-75
2022/03/13 02:33:10;;;;;;;1.83;1.25;;;17.30;57.90;;;;;;5085257;28;20043;-79
2022/03/13 02:35:35;;;;;;;2.10;1.25;;;17.30;57.90;;;;;;5091255;28;20056;-74
2022/03/13 02:38:01;;;;;;;1.60;1.08;;;17.30;57.90;;;;;;5111405;28;20889;-79
2022/03/13 02:40:27;;;;;;;1.33;0.93;;;17.30;58.00;;;;;;5103483;28;20012;-77
2022/03/13 02:42:55;;;;;;;1.63;0.95;;;17.30;57.90;;;;;;5086351;28;20717;-77
2022/03/13 02:45:32;;;;;;;1.90;1.00;;;17.30;58.00;;;;;;5083145;28;20111;-74
2022/03/13 02:48:02;;;;;;;1.83;1.10;;;17.30;58.00;;;;;;5084158;28;20096;-73
2022/03/13 02:50:28;;;;;;;1.67;1.10;;;17.20;58.00;;;;;;5084640;28;20032;-75
2022/03/13 02:52:53;;;;;;;1.23;0.80;;;17.30;58.00;;;;;;5083010;28;20559;-73
2022/03/13 02:55:19;;;;;;;1.40;0.90;;;17.30;58.00;;;;;;5084130;28;20099;-75
2022/03/13 02:57:45;;;;;;;1.60;1.08;;;17.20;58.00;;;;;;5087815;28;20032;-75
2022/03/13 03:00:11;;;;;;;1.48;1.00;;;17.20;58.00;;;;;;5084686;28;20034;-76
2022/03/13 03:02:37;;;;;;;1.58;1.10;;;17.30;58.00;;;;;;5084448;28;20028;-74
2022/03/13 03:05:05;;;;;;;1.98;1.25;;;17.20;58.00;;;;;;5082616;28;20031;-76
2022/03/13 03:07:31;;;;;;;1.52;0.98;;;17.20;58.10;;;;;;5084537;28;20093;-74
2022/03/13 03:09:57;;;;;;;1.45;1.00;;;17.20;58.10;;;;;;5089911;28;20020;-75
2022/03/13 03:12:22;;;;;;;1.48;1.10;;;17.20;58.20;;;;;;5087610;28;20111;-74
2022/03/13 03:14:48;;;;;;;1.52;0.93;;;17.20;58.20;;;;;;5087896;28;20103;-75
2022/03/13 03:17:14;;;;;;;1.30;0.90;;;17.10;58.20;;;;;;5087931;28;20040;-74
2022/03/13 03:19:39;;;;;;;1.70;1.10;;;17.10;58.20;;;;;;5088459;28;20406;-74
2022/03/13 03:22:05;;;;;;;2.78;1.30;;;17.20;58.30;;;;;;5088874;28;20546;-75
2022/03/13 03:24:31;;;;;;;1.85;1.10;;;17.10;58.20;;;;;;5086131;28;20040;-74
2022/03/13 03:26:58;;;;;;;1.15;0.85;;;17.10;58.30;;;;;;5087824;28;20119;-78
2022/03/13 03:29:25;;;;;;;2.03;1.10;;;17.10;58.30;;;;;;5087711;28;20024;-78
2022/03/13 03:31:51;;;;;;;1.50;1.05;;;17.10;58.30;;;;;;5087312;28;20051;-74
2022/03/13 03:34:20;;;;;;;1.60;0.88;;;17.10;58.30;;;;;;5086450;28;20063;-75
2022/03/13 03:36:51;;;;;;;1.50;0.85;;;17.10;58.30;;;;;;5086193;28;20028;-74
2022/03/13 03:39:18;;;;;;;3.42;1.02;;;17.10;58.30;;;;;;5087310;28;20031;-74
2022/03/13 03:41:46;;;;;;;1.58;0.90;;;17.10;58.30;;;;;;5087221;28;20086;-74
2022/03/13 03:44:12;;;;;;;2.10;1.30;;;17.10;58.30;;;;;;5087373;28;20050;-73
2022/03/13 03:46:40;;;;;;;1.60;1.02;;;17.10;58.30;;;;;;5087550;28;20047;-75
2022/03/13 03:49:05;;;;;;;1.77;1.23;;;17.00;58.30;;;;;;5088031;28;20042;-76
2022/03/13 03:51:31;;;;;;;1.50;1.00;;;17.10;58.30;;;;;;5092433;28;20024;-74
2022/03/13 03:53:57;;;;;;;3.22;1.13;;;17.10;58.40;;;;;;5086108;28;20057;-73
2022/03/13 03:56:23;;;;;;;2.63;1.10;;;17.00;58.30;;;;;;5091107;28;20527;-76
2022/03/13 03:58:48;;;;;;;2.03;1.15;;;17.00;58.40;;;;;;5086975;28;20023;-75
2022/03/13 04:01:15;;;;;;;1.85;1.10;;;17.00;58.40;;;;;;5086696;28;20570;-75
2022/03/13 04:03:41;;;;;;;1.40;1.10;;;17.00;58.40;;;;;;5086015;28;20065;-75
2022/03/13 04:06:07;;;;;;;1.58;1.02;;;17.00;58.50;;;;;;5089902;28;20036;-73
2022/03/13 04:08:33;;;;;;;1.83;1.02;;;17.00;58.50;;;;;;5086809;28;20085;-74
2022/03/13 04:11:00;;;;;;;2.08;1.27;;;17.00;58.50;;;;;;5087012;28;20062;-80
2022/03/13 04:13:26;;;;;;;1.70;1.00;;;17.00;58.50;;;;;;5088102;28;20071;-73
2022/03/13 04:15:52;;;;;;;2.28;1.30;;;17.00;58.50;;;;;;5087193;28;20066;-75
2022/03/13 04:18:19;;;;;;;2.08;1.20;;;16.90;58.50;;;;;;5086907;28;20431;-77
2022/03/13 04:20:45;;;;;;;1.58;1.10;;;16.90;58.50;;;;;;5089613;28;20109;-75
2022/03/13 04:23:10;;;;;;;1.85;1.15;;;17.00;58.50;;;;;;5087635;28;20024;-74
2022/03/13 04:25:37;;;;;;;1.63;1.10;;;16.90;58.50;;;;;;5086663;28;20090;-74
2022/03/13 04:28:04;;;;;;;2.08;1.52;;;17.00;58.50;;;;;;5086786;28;20032;-75
2022/03/13 04:30:31;;;;;;;1.88;1.30;;;16.90;58.50;;;;;;5084928;28;20391;-73
2022/03/13 04:32:57;;;;;;;2.30;1.17;;;16.90;58.50;;;;;;5086354;28;20032;-74
2022/03/13 04:35:24;;;;;;;1.80;1.30;;;16.90;58.50;;;;;;5087769;28;20121;-75
2022/03/13 04:37:50;;;;;;;2.92;1.40;;;16.90;58.50;;;;;;5086399;28;20027;-76
2022/03/13 04:40:16;;;;;;;2.80;1.20;;;16.90;58.50;;;;;;5086833;28;20038;-74
2022/03/13 04:42:41;;;;;;;2.70;1.17;;;16.90;58.50;;;;;;5086406;28;20020;-73
2022/03/13 04:45:07;;;;;;;1.88;1.30;;;16.90;58.60;;;;;;5086868;28;20024;-75
2022/03/13 04:47:34;;;;;;;2.42;1.20;;;16.90;59.20;;;;;;5086401;28;20032;-74
2022/03/13 04:50:00;;;;;;;2.03;1.30;;;16.90;58.70;;;;;;5087602;28;20103;-76
2022/03/13 04:52:27;;;;;;;1.77;1.25;;;16.90;58.60;;;;;;5086744;28;20123;-75
2022/03/13 04:54:52;;;;;;;1.88;1.25;;;16.90;58.70;;;;;;5086407;28;20035;-75
2022/03/13 04:57:19;;;;;;;1.80;1.20;;;16.90;58.70;;;;;;5087556;28;20024;-74
2022/03/13 04:59:44;;;;;;;1.40;0.90;;;16.90;58.70;;;;;;5088724;28;20024;-75
2022/03/13 05:02:10;;;;;;;2.05;1.33;;;16.80;58.60;;;;;;5086388;28;20080;-74
2022/03/13 05:04:36;;;;;;;1.65;1.27;;;16.90;58.70;;;;;;5086788;28;20524;-74
2022/03/13 05:07:02;;;;;;;2.03;1.38;;;16.90;58.70;;;;;;5085553;28;20036;-75
2022/03/13 05:09:28;;;;;;;2.40;1.30;;;16.90;58.70;;;;;;5085956;28;20081;-74
2022/03/13 05:11:54;;;;;;;2.78;1.40;;;16.90;58.60;;;;;;5085553;28;20043;-73
2022/03/13 05:14:19;;;;;;;2.05;1.27;;;16.90;58.60;;;;;;5086109;28;20024;-73
2022/03/13 05:16:45;;;;;;;2.00;1.40;;;16.90;58.50;;;;;;5086205;28;20023;-73
2022/03/13 05:19:11;;;;;;;1.30;1.00;;;16.80;58.50;;;;;;5086040;28;20064;-74
2022/03/13 05:21:36;;;;;;;1.67;1.20;;;16.90;58.60;;;;;;5087767;28;20020;-73
2022/03/13 05:24:02;;;;;;;2.00;1.40;;;16.90;58.60;;;;;;5085403;28;20526;-74
2022/03/13 05:26:28;;;;;;;1.88;1.35;;;16.90;58.60;;;;;;5085465;28;20518;-73
2022/03/13 05:28:54;;;;;;;3.25;1.55;;;16.90;58.50;;;;;;5087614;28;20052;-73
2022/03/13 05:31:20;;;;;;;2.40;1.25;;;16.90;58.50;;;;;;5088344;28;20039;-73
2022/03/13 05:33:46;;;;;;;1.92;1.13;;;16.90;58.50;;;;;;5084926;28;20024;-74
2022/03/13 05:36:12;;;;;;;1.90;1.15;;;16.90;58.50;;;;;;5086802;28;20050;-73
2022/03/13 05:38:38;;;;;;;2.97;1.50;;;16.90;58.50;;;;;;5086047;28;20035;-78
2022/03/13 05:41:06;;;;;;;3.30;1.80;;;16.90;58.50;;;;;;5085763;28;20062;-75
2022/03/13 05:43:33;;;;;;;1.75;1.25;;;16.90;58.50;;;;;;5085778;28;20966;-78
2022/03/13 05:45:58;;;;;;;3.72;2.08;;;17.00;58.50;;;;;;5085792;28;20154;-73
2022/03/13 05:48:26;;;;;;;3.05;1.38;;;16.90;58.50;;;;;;5083973;28;20114;-78
2022/03/13 05:50:52;;;;;;;2.17;1.42;;;16.90;58.40;;;;;;5085143;28;20070;-75
2022/03/13 05:53:18;;;;;;;2.83;1.58;;;17.00;59.00;;;;;;5086019;28;20028;-75
2022/03/13 05:55:44;;;;;;;2.03;1.35;;;17.00;58.50;;;;;;5085893;28;20493;-78
2022/03/13 05:58:11;;;;;;;2.60;1.45;;;17.00;58.50;;;;;;5087632;28;20078;-75
2022/03/13 06:00:39;;;;;;;2.03;1.42;;;17.00;58.50;;;;;;5087975;28;20024;-74
2022/03/13 06:03:06;;;;;;;3.67;1.50;;;17.00;58.50;;;;;;5085602;28;20024;-73
2022/03/13 06:05:34;;;;;;;2.00;1.42;;;17.00;58.40;;;;;;5085132;28;20221;-73
2022/03/13 06:08:00;;;;;;;2.15;1.50;;;17.00;58.40;;;;;;5084979;28;20031;-74
2022/03/13 06:10:25;;;;;;;2.97;1.48;;;17.00;58.50;;;;;;5086898;28;21273;-73
2022/03/13 06:12:51;;;;;;;2.38;1.60;;;17.00;58.50;;;;;;5084366;28;20059;-75
2022/03/13 06:15:17;;;;;;;2.30;1.70;;;17.00;58.50;;;;;;5085388;28;20028;-74
2022/03/13 06:17:45;;;;;;;2.45;1.50;;;17.00;58.50;;;;;;5084360;28;20139;-74
2022/03/13 06:20:12;;;;;;;2.83;1.77;;;17.00;58.50;;;;;;5086588;28;20123;-74
2022/03/13 06:22:39;;;;;;;1.98;1.50;;;17.00;58.50;;;;;;5086048;28;20107;-74
2022/03/13 06:25:06;;;;;;;2.33;1.40;;;17.00;58.50;;;;;;5084248;28;20499;-73
2022/03/13 06:27:32;;;;;;;2.55;1.73;;;17.00;58.40;;;;;;5086759;28;20574;-76
2022/03/13 06:30:00;;;;;;;2.25;1.55;;;17.00;58.40;;;;;;5088022;28;20111;-73
2022/03/13 06:32:27;;;;;;;2.10;1.42;;;17.00;58.40;;;;;;5085997;28;20035;-74
2022/03/13 06:34:53;;;;;;;2.72;1.67;;;17.00;58.40;;;;;;5084408;28;20081;-74
2022/03/13 06:37:18;;;;;;;2.10;1.30;;;17.00;58.40;;;;;;5084256;28;20031;-73
2022/03/13 06:39:44;;;;;;;3.08;1.65;;;17.00;58.50;;;;;;5085473;28;20028;-73
2022/03/13 06:42:10;;;;;;;2.22;1.58;;;17.00;58.40;;;;;;5085444;28;20032;-76
2022/03/13 06:44:36;;;;;;;2.97;1.50;;;17.10;58.40;;;;;;5089047;28;20039;-74
2022/03/13 06:47:02;;;;;;;3.05;1.75;;;17.00;58.40;;;;;;5089755;28;20035;-78
2022/03/13 06:49:28;;;;;;;2.90;1.95;;;17.00;58.40;;;;;;5089994;28;20103;-82
2022/03/13 06:51:53;;;;;;;2.33;1.77;;;17.00;58.40;;;;;;5091411;28;20138;-75
2022/03/13 06:54:19;;;;;;;2.15;1.50;;;17.00;58.30;;;;;;5090995;28;20035;-76
2022/03/13 06:56:48;;;;;;;3.22;2.08;;;17.00;58.30;;;;;;5091646;28;20073;-76
2022/03/13 06:59:13;;;;;;;2.38;1.33;;;17.00;58.40;;;;;;5088834;28;20051;-74
2022/03/13 07:01:39;;;;;;;2.25;1.63;;;17.00;58.40;;;;;;5092724;28;20499;-73
2022/03/13 07:04:05;;;;;;;3.95;1.80;;;17.00;58.30;;;;;;5087879;28;20158;-77
2022/03/13 07:06:33;;;;;;;2.60;1.50;;;17.00;58.30;;;;;;5088600;28;20526;-75
2022/03/13 07:08:59;;;;;;;3.25;2.00;;;17.00;58.40;;;;;;5089227;28;20020;-76
2022/03/13 07:11:30;;;;;;;2.90;2.03;;;17.10;58.40;;;;;;5089650;28;20036;-74
2022/03/13 07:13:56;;;;;;;3.13;2.10;;;17.00;58.30;;;;;;5088505;28;20039;-74
2022/03/13 07:16:22;;;;;;;2.55;1.73;;;17.00;58.30;;;;;;5088771;28;20028;-75
2022/03/13 07:18:48;;;;;;;2.50;1.20;;;17.00;58.30;;;;;;5087017;28;20020;-74
2022/03/13 07:21:13;;;;;;;2.80;1.80;;;17.10;58.30;;;;;;5090215;28;20028;-74
2022/03/13 07:23:39;;;;;;;2.53;1.60;;;17.10;58.40;;;;;;5089598;28;20361;-74
2022/03/13 07:26:05;;;;;;;2.95;1.70;;;17.00;58.30;;;;;;5086709;28;20588;-74
2022/03/13 07:28:31;;;;;;;2.42;1.60;;;17.10;58.30;;;;;;5089465;28;20602;-74
2022/03/13 07:30:57;;;;;;;2.28;1.25;;;17.10;58.30;;;;;;5089825;28;20426;-73
2022/03/13 07:33:23;;;;;;;3.17;1.92;;;17.00;58.30;;;;;;5088358;28;20028;-75
2022/03/13 07:35:48;;;;;;;2.33;1.67;;;17.00;58.30;;;;;;5089007;28;20089;-76
2022/03/13 07:38:14;;;;;;;2.95;1.75;;;17.00;58.30;;;;;;5088919;28;20444;-74
2022/03/13 07:40:41;;;;;;;2.22;1.55;;;17.00;58.30;;;;;;5088794;28;20411;-76
2022/03/13 07:43:07;;;;;;;2.92;1.70;;;17.00;58.30;;;;;;5088066;28;20104;-76
2022/03/13 07:45:33;;;;;;;2.97;1.90;;;17.00;58.30;;;;;;5091589;28;20115;-76
2022/03/13 07:47:59;;;;;;;2.47;1.52;;;17.00;58.30;;;;;;5111957;28;20509;-77
2022/03/13 07:50:27;;;;;;;2.83;1.60;;;17.00;58.30;;;;;;5114264;28;20099;-75
2022/03/13 07:52:53;;;;;;;2.83;1.80;;;17.00;58.40;;;;;;5093340;28;20031;-75
2022/03/13 07:55:21;;;;;;;2.13;1.50;;;17.00;58.40;;;;;;5092296;28;20028;-76
2022/03/13 07:57:47;;;;;;;2.55;1.85;;;17.10;59.10;;;;;;5099472;28;20055;-76
2022/03/13 08:00:16;;;;;;;2.15;1.40;;;17.10;59.30;;;;;;5114334;28;20055;-79
2022/03/13 08:02:46;;;;;;;2.42;1.63;;;17.10;59.20;;;;;;5103046;28;20043;-77
2022/03/13 08:05:16;;;;;;;3.03;1.77;;;17.10;59.30;;;;;;5093709;28;20396;-76
2022/03/13 08:07:42;;;;;;;4.32;1.60;;;17.20;59.30;;;;;;5093488;28;20077;-78
2022/03/13 08:10:10;;;;;;;25.95;23.30;;;17.20;59.80;;;;;;5094030;28;20024;-77
2022/03/13 08:12:35;;;;;;;24.77;15.13;;;17.20;60.00;;;;;;5095020;28;20053;-79
2022/03/13 08:15:01;;;;;;;8.15;7.20;;;17.20;60.60;;;;;;5094230;28;20155;-77
2022/03/13 08:17:27;;;;;;;10.05;8.23;;;17.20;60.30;;;;;;5093505;28;20506;-77
2022/03/13 08:19:56;;;;;;;12.18;9.52;;;17.30;60.10;;;;;;5093390;28;20357;-76
2022/03/13 08:22:22;;;;;;;14.90;9.05;;;17.30;59.80;;;;;;5093249;28;20052;-76
2022/03/13 08:24:48;;;;;;;12.32;8.48;;;17.30;59.60;;;;;;5093125;28;20036;-76
2022/03/13 08:27:14;;;;;;;12.32;7.90;;;17.30;59.60;;;;;;5093322;28;20377;-75
2022/03/13 08:29:39;;;;;;;10.20;8.52;;;17.30;59.50;;;;;;5093158;28;20027;-74
2022/03/13 08:32:05;;;;;;;10.75;7.15;;;17.30;59.50;;;;;;5093063;28;20031;-75
2022/03/13 08:34:33;;;;;;;11.30;6.53;;;17.30;59.50;;;;;;5093318;28;20024;-75
2022/03/13 08:36:59;;;;;;;9.02;6.80;;;17.30;59.50;;;;;;5092941;28;20052;-78
2022/03/13 08:39:24;;;;;;;7.10;6.38;;;17.40;59.60;;;;;;5093269;28;20423;-82
2022/03/13 08:41:50;;;;;;;15.77;6.20;;;17.40;59.50;;;;;;5092427;28;20062;-83
2022/03/13 08:44:15;;;;;;;11.55;6.80;;;17.40;60.40;;;;;;5091917;28;20020;-81
2022/03/13 08:46:41;;;;;;;9.98;5.75;;;17.50;62.70;;;;;;5078998;28;20051;-82
2022/03/13 08:49:08;;;;;;;10.88;5.97;;;17.50;63.30;;;;;;5071703;28;20118;-74
2022/03/13 08:51:33;;;;;;;13.57;4.63;;;17.60;63.00;;;;;;5072726;28;20026;-74
2022/03/13 08:53:59;;;;;;;12.13;5.43;;;17.70;62.00;;;;;;5093753;28;20032;-75
2022/03/13 08:56:26;;;;;;;8.23;5.13;;;17.80;62.40;;;;;;5103592;28;20093;-74
2022/03/13 08:58:53;;;;;;;5.68;4.82;;;17.80;62.40;;;;;;5112780;28;20551;-74
2022/03/13 09:01:19;;;;;;;9.68;4.00;;;17.80;62.50;;;;;;5105211;28;20032;-74
2022/03/13 09:03:45;;;;;;;6.85;4.50;;;17.80;62.40;;;;;;5105933;28;20024;-75
2022/03/13 09:06:11;;;;;;;7.78;3.80;;;17.80;62.30;;;;;;5088151;28;20032;-74
2022/03/13 09:08:37;;;;;;;5.45;3.92;;;17.90;62.20;;;;;;5072299;28;20032;-74
2022/03/13 09:11:02;;;;;;;10.23;4.82;;;17.90;61.80;;;;;;5072048;28;20031;-75
2022/03/13 09:13:28;;;;;;;9.27;4.20;;;17.90;61.50;;;;;;5071000;28;20071;-76
2022/03/13 09:15:54;;;;;;;7.20;3.47;;;17.90;61.20;;;;;;5072072;28;20035;-77
2022/03/13 09:18:19;;;;;;;8.23;3.50;;;18.00;61.00;;;;;;5070879;28;20119;-76
2022/03/13 09:20:45;;;;;;;4.03;3.35;;;18.00;60.70;;;;;;5070490;28;20021;-75
2022/03/13 09:23:11;;;;;;;5.45;3.20;;;18.00;60.30;;;;;;5073159;28;20108;-74
2022/03/13 09:25:36;;;;;;;6.95;3.17;;;18.00;60.40;;;;;;5072802;28;20054;-75
2022/03/13 09:28:03;;;;;;;8.30;3.47;;;18.00;60.20;;;;;;5071818;28;20093;-74
2022/03/13 09:30:28;;;;;;;6.90;3.17;;;18.10;60.20;;;;;;5071863;28;20060;-72
2022/03/13 09:32:54;;;;;;;7.78;3.00;;;18.10;60.20;;;;;;5071533;28;20064;-71
2022/03/13 09:35:20;;;;;;;4.25;2.53;;;18.10;60.10;;;;;;5071894;28;20024;-73
2022/03/13 09:37:46;;;;;;;7.82;2.78;;;18.10;60.10;;;;;;5071538;28;20050;-72
2022/03/13 09:40:13;;;;;;;5.35;3.08;;;18.10;60.10;;;;;;5071935;28;20075;-71
2022/03/13 09:42:39;;;;;;;6.07;2.75;;;18.10;60.00;;;;;;5087635;28;20136;-71
2022/03/13 09:45:06;;;;;;;5.97;2.90;;;18.10;60.10;;;;;;5100332;28;20115;-72
2022/03/13 09:47:32;;;;;;;4.22;2.50;;;18.10;60.00;;;;;;5071642;28;20045;-74
2022/03/13 09:49:57;;;;;;;8.80;2.70;;;18.10;60.00;;;;;;5071477;28;20358;-73
2022/03/13 09:52:23;;;;;;;4.10;2.88;;;18.10;59.90;;;;;;5071545;28;20055;-73
2022/03/13 09:54:49;;;;;;;5.45;2.63;;;18.00;57.90;;;;;;5071291;28;20078;-74
2022/03/13 09:57:15;;;;;;;8.13;3.95;;;18.00;58.40;;;;;;5087076;28;20063;-73
2022/03/13 09:59:43;;;;;;;4.93;1.95;;;18.00;58.90;;;;;;5103702;28;20488;-72
2022/03/13 10:02:09;;;;;;;5.22;2.60;;;18.20;58.40;;;;;;5092038;28;20058;-76
2022/03/13 10:04:35;;;;;;;4.82;2.00;;;18.30;58.80;;;;;;5084347;28;20142;-74
2022/03/13 10:07:01;;;;;;;4.97;2.10;;;18.40;58.50;;;;;;5071033;28;20111;-73
2022/03/13 10:09:28;;;;;;;8.60;1.98;;;18.50;58.90;;;;;;5086941;28;20023;-74
2022/03/13 10:12:11;;;;;;;5.82;2.30;;;18.50;58.20;;;;;;5079355;28;20024;-73
2022/03/13 10:14:53;;;;;;;8.07;2.63;;;18.60;58.40;;;;;;5088743;28;20028;-73
2022/03/13 10:17:29;;;;;;;4.82;2.55;;;18.70;61.00;;;;;;5090839;28;20050;-74
2022/03/13 10:20:14;;;;;;;5.07;2.17;;;18.80;61.30;;;;;;5091296;28;20480;-74
2022/03/13 10:22:40;;;;;;;12.82;2.15;;;18.80;60.80;;;;;;5091762;28;20032;-72
2022/03/13 10:25:06;;;;;;;5.07;2.10;;;19.00;61.00;;;;;;5090998;28;20104;-72
2022/03/13 10:27:33;;;;;;;8.48;2.00;;;19.00;61.30;;;;;;5080173;28;20101;-74
2022/03/13 10:30:05;;;;;;;6.82;2.00;;;19.10;61.50;;;;;;5077665;28;20446;-72
2022/03/13 10:32:31;;;;;;;5.15;2.08;;;19.20;61.10;;;;;;5084118;28;20024;-72
2022/03/13 10:34:57;;;;;;;9.95;1.88;;;19.20;60.20;;;;;;5070854;28;20078;-72
2022/03/13 10:37:52;;;;;;;4.70;1.80;;;19.40;60.50;;;;;;5069754;28;20107;-73
2022/03/13 10:40:23;;;;;;;3.97;1.90;;;19.50;60.30;;;;;;5073676;28;20111;-74
2022/03/13 10:42:51;;;;;;;5.57;1.75;;;19.60;59.90;;;;;;5090570;28;20028;-73
2022/03/13 10:45:37;;;;;;;3.90;1.83;;;19.70;59.40;;;;;;5089782;28;20024;-72
2022/03/13 10:48:21;;;;;;;5.88;1.92;;;19.80;58.90;;;;;;5088930;28;20046;-73
2022/03/13 10:50:51;;;;;;;3.55;1.52;;;19.90;58.60;;;;;;5090048;28;20030;-72
2022/03/13 10:53:18;;;;;;;4.10;1.48;;;19.90;57.70;;;;;;5091162;28;20024;-75
2022/03/13 10:56:10;;;;;;;6.00;1.80;;;20.00;57.10;;;;;;5089839;28;20373;-72
2022/03/13 10:58:39;;;;;;;4.05;1.40;;;20.20;57.20;;;;;;5090823;28;20095;-72
2022/03/13 11:01:10;;;;;;;3.55;1.35;;;20.30;57.00;;;;;;5090836;28;20021;-76
2022/03/13 11:03:52;;;;;;;3.80;1.60;;;20.40;56.50;;;;;;5091109;28;20028;-72
2022/03/13 11:06:19;;;;;;;3.20;1.80;;;20.50;55.80;;;;;;5091006;28;20039;-73
2022/03/13 11:08:44;;;;;;;2.05;1.20;;;20.50;55.80;;;;;;5090854;28;20017;-73
2022/03/13 11:11:12;;;;;;;7.32;1.40;;;20.60;55.70;;;;;;5087532;28;20029;-74
2022/03/13 11:13:39;;;;;;;7.55;1.85;;;20.70;55.60;;;;;;5082246;28;20021;-74
2022/03/13 11:16:07;;;;;;;3.13;1.30;;;20.80;55.40;;;;;;5073153;28;20519;-74
2022/03/13 11:18:35;;;;;;;2.75;1.42;;;20.90;55.40;;;;;;5077375;28;20025;-73
2022/03/13 11:21:06;;;;;;;3.25;1.67;;;20.90;55.30;;;;;;5094130;28;20023;-74
2022/03/13 11:23:33;;;;;;;2.10;1.20;;;20.90;55.10;;;;;;5105577;28;20612;-76
2022/03/13 11:25:59;;;;;;;2.72;1.52;;;21.00;55.00;;;;;;5076348;28;20032;-74
2022/03/13 11:28:28;;;;;;;5.13;2.75;;;21.10;54.80;;;;;;5093134;28;20020;-75
2022/03/13 11:30:54;;;;;;;4.93;1.80;;;21.20;54.70;;;;;;5077181;28;20396;-75
2022/03/13 11:33:46;;;;;;;4.70;1.98;;;21.20;54.50;;;;;;5082086;28;20025;-76
2022/03/13 11:36:29;;;;;;;7.60;2.15;;;21.30;54.50;;;;;;5093488;28;20024;-75
2022/03/13 11:39:00;;;;;;;3.05;1.20;;;21.50;54.20;;;;;;5095847;28;20015;-75
2022/03/13 11:41:42;;;;;;;5.32;1.58;;;21.60;53.90;;;;;;5094321;28;20028;-74
2022/03/13 11:44:20;;;;;;;3.75;1.70;;;21.70;53.20;;;;;;5093151;28;20020;-75
2022/03/13 11:46:51;;;;;;;3.42;1.52;;;21.80;53.60;;;;;;5103206;28;20043;-74
2022/03/13 11:49:33;;;;;;;2.28;1.25;;;21.90;53.40;;;;;;5112924;28;20092;-74
2022/03/13 11:52:14;;;;;;;8.25;1.73;;;22.00;53.10;;;;;;5104092;28;20020;-74
2022/03/13 11:54:50;;;;;;;5.47;1.45;;;22.00;53.10;;;;;;5093791;28;20024;-73
2022/03/13 11:57:20;;;;;;;7.32;1.70;;;22.10;53.10;;;;;;5092413;28;20368;-74
2022/03/13 11:59:52;;;;;;;2.92;1.20;;;22.20;53.10;;;;;;5088486;28;20509;-74
2022/03/13 12:02:42;;;;;;;4.43;1.25;;;22.30;52.80;;;;;;5113846;27;20051;-74
2022/03/13 12:05:26;;;;;;;1.40;0.90;;;22.40;52.70;;;;;;5095054;28;20106;-73
2022/03/13 12:08:08;;;;;;;3.63;1.30;;;22.50;52.70;;;;;;5093050;28;20032;-74
2022/03/13 12:10:41;;;;;;;4.25;1.50;;;22.50;52.80;;;;;;5093488;28;20016;-74
2022/03/13 12:13:18;;;;;;;3.53;1.27;;;22.70;52.20;;;;;;5093084;28;20088;-75
2022/03/13 12:15:45;;;;;;;3.80;1.08;;;22.80;52.30;;;;;;5079082;28;20040;-74
2022/03/13 12:18:28;;;;;;;5.25;1.17;;;22.90;52.10;;;;;;5073638;28;20025;-75
2022/03/13 12:21:04;;;;;;;4.30;1.25;;;23.10;51.80;;;;;;5073021;28;20024;-74
2022/03/13 12:23:36;;;;;;;1.98;1.20;;;23.60;51.60;;;;;;5073434;28;20019;-74
2022/03/13 12:26:27;;;;;;;12.40;1.50;;;24.50;49.90;;;;;;5081488;28;20397;-74
2022/03/13 12:28:57;;;;;;;2.50;1.10;;;25.40;48.10;;;;;;5091090;28;20020;-74
2022/03/13 12:31:23;;;;;;;3.85;1.70;;;26.00;47.40;;;;;;5094044;28;20028;-74
2022/03/13 12:33:51;;;;;;;5.57;1.33;;;27.40;45.10;;;;;;5086220;28;20032;-75
2022/03/13 12:36:19;;;;;;;2.97;1.23;;;27.30;45.20;;;;;;5082056;28;20043;-74
2022/03/13 12:38:53;;;;;;;3.15;1.27;;;28.30;43.30;;;;;;5089051;28;20019;-74
2022/03/13 12:41:20;;;;;;;2.25;1.10;;;27.90;43.50;;;;;;5091219;28;20085;-75
2022/03/13 12:44:01;;;;;;;3.45;1.20;;;26.80;44.70;;;;;;5090487;28;20028;-74
2022/03/13 12:46:29;;;;;;;3.05;1.15;;;26.30;45.40;;;;;;5089470;28;20030;-75
2022/03/13 12:49:02;;;;;;;3.28;1.17;;;27.30;44.80;;;;;;5090917;28;20028;-75